KSRQ/SRQ METAR and TAF weather

Enter ICAO airport designator
Station Type Date Time Source
KSRQ METAR 2019/04/25 17:53 UTC NOAA

KSRQ 251753Z 21014KT 10SM CLR 27/19 A2998 RMK AO2 SLP151 T02720194 10278 20183 58008


Station Type Date Time Source
KSRQ Decoded METAR 2019/04/25 17:53 UTC NOAA

SARASOTA/BRADENTON INTERNATIONAL ., FL, United States (KSRQ) 27-24N 082-33W 18M
Apr 25, 2019 - 01:53 PM EDT / 2019.04.25 1753 UTC
Wind: from the SSW (210 degrees) at 16 MPH (14 KT):0
Visibility: 10 mile(s):0
Sky conditions: clear
Temperature: 81.0 F (27.2 C)
Dew Point: 66.9 F (19.4 C)
Relative Humidity: 62%
Pressure (altimeter): 29.98 in. Hg (1015 hPa)
Pressure tendency: 0.02 inches (0.8 hPa) lower than three hours ago
ob: KSRQ 251753Z 21014KT 10SM CLR 27/19 A2998 RMK AO2 SLP151 T02720194 10278 20183 58008
cycle: 18

Station Type Date Time Source
KSRQ TAF 2019/04/25 18:30 UTC NOAA

TAF KSRQ 251728Z 2518/2618 23010KT P6SM FEW030 SCT250
FM260400 19005KT P6SM FEW010 BKN120 BKN250
FM261200 21008KT P6SM VCTS SCT010CB BKN100 OVC250
FM261600 23013G21KT P6SM VCTS SCT025CB OVC040

Example: see airport list